Time;durP1;ratioP1;P1;durP2;ratioP2;P2;SDS_P1;SDS_P2;PMS_P1;PMS_P2;Temp;Humidity;BMP_temperature;BMP_pressure;BME280_temperature;BME280_humidity;BME280_pressure;Samples;Min_cycle;Max_cycle;Signal;HPM_P1;HPM_P2
2023/09/04 00:00:28;;;;;;;2.03;0.90;;;;;;;21.19;72.80;99590.50;4954126;28;20034;-87
2023/09/04 00:02:53;;;;;;;1.65;1.35;;;;;;;21.45;72.60;99617.56;4980606;28;20409;-88
2023/09/04 00:05:19;;;;;;;1.73;0.93;;;;;;;21.27;74.50;99624.91;4990402;28;20057;-86
2023/09/04 00:07:45;;;;;;;1.35;0.77;;;;;;;21.06;75.38;99619.88;4976312;28;20065;-88
2023/09/04 00:10:11;;;;;;;2.00;0.98;;;;;;;21.33;75.34;99629.88;4971976;28;20034;-89
2023/09/04 00:12:36;;;;;;;2.67;2.05;;;;;;;21.18;75.39;99618.28;4972148;28;20105;-87
2023/09/04 00:15:02;;;;;;;0.85;0.80;;;;;;;20.90;76.10;99585.09;4971941;28;20031;-88
2023/09/04 00:17:30;;;;;;;0.80;0.63;;;;;;;21.18;76.20;99620.97;4974177;28;20489;-87
2023/09/04 00:19:55;;;;;;;1.15;1.00;;;;;;;21.11;75.86;99579.38;4971679;28;20022;-88
2023/09/04 00:22:21;;;;;;;1.52;1.33;;;;;;;21.35;74.72;99586.88;4981385;28;20155;-88
2023/09/04 00:24:46;;;;;;;1.30;1.13;;;;;;;21.37;75.23;99622.53;4991666;28;20037;-88
2023/09/04 00:27:12;;;;;;;2.55;1.20;;;;;;;21.24;75.08;99588.41;4973444;28;20398;-87
2023/09/04 00:29:37;;;;;;;0.63;0.52;;;;;;;21.60;74.43;99610.44;4976834;28;20402;-87
2023/09/04 00:32:03;;;;;;;1.23;0.85;;;;;;;21.46;73.74;99562.94;4972277;28;20117;-88
2023/09/04 00:34:29;;;;;;;2.78;1.67;;;;;;;21.80;73.07;99593.06;4971576;28;20053;-87
2023/09/04 00:36:54;;;;;;;0.82;0.60;;;;;;;21.75;72.46;99557.59;4971589;28;20440;-87
2023/09/04 00:39:20;;;;;;;0.52;0.50;;;;;;;22.07;72.06;99611.06;4974184;28;20054;-87
2023/09/04 00:41:46;;;;;;;1.27;1.00;;;;;;;21.80;71.90;99560.84;4972116;28;20367;-88
2023/09/04 00:44:11;;;;;;;2.25;0.98;;;;;;;22.12;71.54;99599.06;4971814;28;20535;-87
2023/09/04 00:46:37;;;;;;;0.85;0.80;;;;;;;21.87;71.61;99570.22;4971687;28;20031;-87
2023/09/04 00:49:03;;;;;;;2.75;1.45;;;;;;;21.93;71.64;99568.97;4972000;28;20410;-88
2023/09/04 00:51:29;;;;;;;1.27;1.00;;;;;;;22.02;72.06;99594.38;4972667;28;20031;-88
2023/09/04 00:53:55;;;;;;;1.88;1.67;;;;;;;21.67;72.11;99544.66;4974098;28;20041;-89
2023/09/04 00:56:22;;;;;;;1.77;0.93;;;;;;;21.90;72.73;99612.97;4971719;28;20042;-88
2023/09/04 00:58:48;;;;;;;1.67;1.08;;;;;;;22.04;72.46;99612.09;4954206;28;20122;-88
2023/09/04 01:01:14;;;;;;;3.75;1.38;;;;;;;22.09;72.40;99611.81;4954175;28;20045;-88
2023/09/04 01:03:40;;;;;;;1.35;1.15;;;;;;;21.86;72.73;99592.69;4971427;28;20026;-89
2023/09/04 01:06:05;;;;;;;1.27;0.85;;;;;;;21.84;72.77;99583.00;4971415;28;20030;-89
2023/09/04 01:08:31;;;;;;;3.08;1.67;;;;;;;21.80;73.04;99590.38;4953566;28;20031;-88
2023/09/04 01:11:15;;;;;;;2.03;1.35;;;;;;;22.06;72.38;99596.78;4970865;28;20031;-88
2023/09/04 01:13:46;;;;;;;1.88;1.35;;;;;;;21.64;73.52;99574.38;4964669;28;20038;-89
2023/09/04 01:16:12;;;;;;;2.00;1.70;;;;;;;21.74;72.12;99563.94;4991194;28;20027;-88
2023/09/04 01:18:38;;;;;;;4.18;1.60;;;;;;;21.67;72.43;99571.47;4990705;28;20030;-89
2023/09/04 01:21:05;;;;;;;1.92;1.80;;;;;;;21.72;71.61;99564.03;4990861;28;20040;-89
2023/09/04 01:23:32;;;;;;;1.88;1.17;;;;;;;21.50;71.70;99550.22;4973085;28;20061;-88
2023/09/04 01:26:12;;;;;;;1.80;1.00;;;;;;;21.92;71.81;99586.03;4990933;28;20026;-89
2023/09/04 01:28:52;;;;;;;0.85;0.68;;;;;;;21.93;71.33;99602.06;4972471;28;20085;-89
2023/09/04 01:31:26;;;;;;;0.60;0.60;;;;;;;21.48;72.40;99562.84;4973155;28;20408;-89
2023/09/04 01:33:59;;;;;;;1.55;0.90;;;;;;;21.51;71.70;99554.63;4991191;28;20088;-88
2023/09/04 01:36:31;;;;;;;3.25;1.00;;;;;;;21.68;72.21;99591.16;4990319;28;20129;-89
2023/09/04 01:38:57;;;;;;;1.45;1.17;;;;;;;21.27;72.78;99550.66;4972287;28;20041;-88
2023/09/04 01:41:23;;;;;;;1.58;0.80;;;;;;;21.31;72.87;99551.34;4971090;28;20043;-89
2023/09/04 01:43:49;;;;;;;2.20;1.33;;;;;;;21.45;73.33;99590.72;4973306;28;20033;-89
2023/09/04 01:46:14;;;;;;;1.75;1.30;;;;;;;21.28;72.97;99552.38;4985510;28;20085;-88
2023/09/04 01:48:40;;;;;;;2.47;1.10;;;;;;;21.16;73.79;99542.41;4970960;28;20483;-89
2023/09/04 01:51:05;;;;;;;1.75;1.30;;;;;;;21.14;73.86;99530.06;4972772;28;20030;-88
2023/09/04 01:53:31;;;;;;;1.30;1.20;;;;;;;21.63;72.94;99557.41;4953329;28;20058;-89
2023/09/04 01:55:58;;;;;;;0.80;0.80;;;;;;;21.55;73.55;99583.88;4970992;28;20069;-89
2023/09/04 01:58:24;;;;;;;3.55;1.40;;;;;;;21.62;73.40;99569.09;4970622;28;20387;-89
2023/09/04 02:00:50;;;;;;;1.65;1.15;;;;;;;21.55;73.50;99575.81;4972815;28;20121;-89
2023/09/04 02:03:15;;;;;;;2.30;1.40;;;;;;;21.23;73.65;99533.03;4970798;28;20031;-88
2023/09/04 02:05:42;;;;;;;0.68;0.68;;;;;;;21.40;73.91;99574.06;4971958;28;20034;-89
2023/09/04 02:08:08;;;;;;;1.77;1.10;;;;;;;21.49;73.06;99559.19;4953492;28;20035;-89
2023/09/04 02:10:35;;;;;;;2.15;1.00;;;;;;;21.44;72.80;99541.56;4970356;28;20415;-89
2023/09/04 02:13:00;;;;;;;2.33;0.88;;;;;;;21.65;72.27;99576.09;4973558;28;20509;-89
2023/09/04 02:15:26;;;;;;;1.23;0.85;;;;;;;21.58;71.64;99526.44;4970692;28;20030;-89
2023/09/04 02:17:52;;;;;;;9.50;1.25;;;;;;;21.89;70.97;99564.75;4973841;28;20034;-88
2023/09/04 02:20:18;;;;;;;1.35;0.82;;;;;;;21.93;70.11;99536.75;4970269;28;20437;-88
2023/09/04 02:22:44;;;;;;;1.77;1.45;;;;;;;21.97;69.39;99520.34;4973334;28;20057;-89
2023/09/04 02:25:09;;;;;;;2.90;1.77;;;;;;;22.07;68.45;99500.94;4975067;28;20121;-89
2023/09/04 02:27:35;;;;;;;2.40;1.20;;;;;;;22.11;68.54;99521.28;4974223;28;20065;-90
2023/09/04 02:30:07;;;;;;;1.52;1.20;;;;;;;22.36;68.18;99563.53;4974019;28;20093;-89
2023/09/04 02:32:33;;;;;;;2.03;1.00;;;;;;;22.15;68.06;99515.59;4975900;28;20511;-88
2023/09/04 02:34:59;;;;;;;1.88;1.13;;;;;;;22.20;68.50;99546.66;4974066;28;20119;-88
2023/09/04 02:37:24;;;;;;;1.55;1.10;;;;;;;22.04;68.71;99549.50;4974212;28;20116;-89
2023/09/04 02:39:50;;;;;;;4.30;2.15;;;;;;;21.97;68.45;99498.88;4988223;28;20042;-87
2023/09/04 02:42:15;;;;;;;3.53;2.05;;;;;;;22.06;68.12;99502.78;4992197;28;20030;-88
2023/09/04 02:44:41;;;;;;;0.93;0.73;;;;;;;22.03;67.87;99520.91;4974962;28;20058;-88
2023/09/04 02:47:06;;;;;;;2.92;1.23;;;;;;;21.92;68.04;99532.34;4973588;28;20031;-88
2023/09/04 02:49:32;;;;;;;1.88;0.88;;;;;;;21.61;67.71;99499.41;4974284;28;20042;-88
2023/09/04 02:51:57;;;;;;;1.33;0.88;;;;;;;21.58;67.16;99505.84;4973391;28;20030;-87
2023/09/04 02:54:23;;;;;;;2.70;1.35;;;;;;;21.43;67.40;99483.50;4975343;28;20053;-88
2023/09/04 02:56:48;;;;;;;1.17;1.05;;;;;;;21.81;67.44;99527.66;4975732;28;20041;-88
2023/09/04 02:59:14;;;;;;;2.72;1.15;;;;;;;21.69;67.04;99498.91;4974119;28;20027;-87
2023/09/04 03:01:39;;;;;;;0.90;0.90;;;;;;;21.66;67.46;99523.28;4985547;28;20404;-88
2023/09/04 03:04:05;;;;;;;1.17;0.95;;;;;;;21.68;66.38;99511.50;4972969;28;20129;-89
2023/09/04 03:06:30;;;;;;;1.60;0.93;;;;;;;21.40;66.65;99499.78;4992808;28;20041;-88
2023/09/04 03:08:56;;;;;;;1.00;0.73;;;;;;;21.11;65.68;99451.50;4993013;28;20477;-87
2023/09/04 03:11:21;;;;;;;1.15;1.05;;;;;;;21.45;65.80;99494.97;4992262;28;20026;-84
2023/09/04 03:13:47;;;;;;;1.52;0.82;;;;;;;21.38;64.85;99471.31;4992824;28;20500;-87
2023/09/04 03:16:13;;;;;;;1.85;1.10;;;;;;;21.34;64.16;99492.13;4990592;28;20037;-85
2023/09/04 03:18:38;;;;;;;1.58;0.93;;;;;;;21.52;63.57;99476.72;4992915;28;20117;-86
2023/09/04 03:21:05;;;;;;;1.65;1.00;;;;;;;21.72;63.07;99513.03;4992640;28;20496;-91
2023/09/04 03:23:31;;;;;;;2.63;1.10;;;;;;;21.85;62.02;99488.06;4973948;28;20053;-88
2023/09/04 03:25:56;;;;;;;2.05;1.55;;;;;;;21.82;60.99;99484.59;4990578;28;20035;-86
2023/09/04 03:28:22;;;;;;;1.33;1.00;;;;;;;21.91;60.92;99485.00;4991954;28;20056;-86
2023/09/04 03:30:48;;;;;;;1.65;0.70;;;;;;;22.09;60.56;99515.13;4981076;28;20035;-88
2023/09/04 03:33:13;;;;;;;4.35;1.70;;;;;;;21.98;60.41;99489.84;4972651;28;20037;-88
2023/09/04 03:35:38;;;;;;;0.77;0.77;;;;;;;22.03;60.04;99488.66;4972257;28;20144;-87
2023/09/04 03:38:04;;;;;;;0.75;0.70;;;;;;;22.33;59.29;99510.00;4972651;28;20037;-84
2023/09/04 03:40:30;;;;;;;0.85;0.63;;;;;;;22.10;59.70;99522.22;4973804;28;20038;-85
2023/09/04 03:42:56;;;;;;;0.75;0.70;;;;;;;22.20;59.01;99490.25;4972065;28;20059;-84
2023/09/04 03:45:21;;;;;;;1.67;0.70;;;;;;;22.10;59.12;99482.78;4972149;28;20470;-87
2023/09/04 03:47:48;;;;;;;3.25;1.23;;;;;;;22.20;58.94;99509.03;4972583;28;20037;-92
2023/09/04 03:50:14;;;;;;;0.88;0.60;;;;;;;21.64;59.79;99457.16;4973817;28;20041;-88
2023/09/04 03:52:42;;;;;;;0.32;0.32;;;;;;;21.98;59.74;99475.53;4972253;28;20023;-86
2023/09/04 03:55:09;;;;;;;0.65;0.50;;;;;;;22.06;59.05;99483.97;4983852;28;20121;-89
2023/09/04 03:57:39;;;;;;;2.13;1.50;;;;;;;22.26;59.27;99512.22;4991338;28;20030;-88
2023/09/04 04:00:16;;;;;;;1.63;0.63;;;;;;;22.09;59.01;99490.94;4992210;28;20042;-88
2023/09/04 04:02:42;;;;;;;0.98;0.88;;;;;;;21.96;59.28;99480.16;4988699;28;20038;-89
2023/09/04 04:05:12;;;;;;;0.38;0.38;;;;;;;21.90;59.21;99472.50;4992415;28;20042;-89
2023/09/04 04:07:38;;;;;;;1.45;0.95;;;;;;;21.90;58.58;99440.28;4988550;28;20038;-88
2023/09/04 04:10:05;;;;;;;0.98;0.60;;;;;;;22.08;59.31;99514.28;4978813;28;20086;-88
2023/09/04 04:12:31;;;;;;;0.80;0.70;;;;;;;21.75;59.38;99477.06;4974581;28;20199;-90
2023/09/04 04:14:57;;;;;;;0.28;0.28;;;;;;;22.07;59.08;99492.88;4971559;28;20114;-89
2023/09/04 04:17:25;;;;;;;0.73;0.50;;;;;;;22.10;59.95;99503.44;4974397;28;20069;-88
2023/09/04 04:19:53;;;;;;;2.00;0.77;;;;;;;21.93;59.83;99491.97;4992206;28;20038;-92
2023/09/04 04:22:20;;;;;;;1.33;0.57;;;;;;;21.90;60.02;99505.59;4975262;28;20525;-92
2023/09/04 04:24:49;;;;;;;1.00;0.85;;;;;;;21.64;60.91;99493.84;4954847;28;20031;-92
2023/09/04 04:27:15;;;;;;;1.08;0.80;;;;;;;21.70;61.60;99522.13;4972573;28;20027;-92
2023/09/04 04:29:45;;;;;;;0.50;0.50;;;;;;;21.28;62.85;99514.81;4960014;28;20049;-91
2023/09/04 04:32:10;;;;;;;0.30;0.30;;;;;;;21.18;63.28;99518.16;4979234;28;20125;-91
2023/09/04 04:34:36;;;;;;;2.50;1.58;;;;;;;20.99;64.31;99518.44;4991521;28;20165;-89
2023/09/04 04:37:01;;;;;;;0.50;0.50;;;;;;;20.83;66.64;99522.06;4980423;28;20109;-92
2023/09/04 04:39:27;;;;;;;1.60;1.05;;;;;;;20.62;69.42;99531.34;4954951;28;20690;-90
2023/09/04 04:41:53;;;;;;;2.25;1.00;;;;;;;20.62;71.46;99552.78;4973297;28;20045;-87
2023/09/04 04:44:19;;;;;;;1.05;0.80;;;;;;;20.15;74.92;99533.16;4982137;28;20117;-90
2023/09/04 04:46:47;;;;;;;3.78;1.23;;;;;;;19.81;77.51;99541.28;4991233;28;20429;-93
2023/09/04 04:49:17;;;;;;;0.55;0.52;;;;;;;19.25;80.17;99514.00;4971012;28;20541;-89
2023/09/04 04:51:43;;;;;;;1.65;1.05;;;;;;;18.84;83.80;99505.44;4991008;28;20030;-86
2023/09/04 04:54:08;;;;;;;3.33;1.50;;;;;;;18.81;86.83;99545.69;4969972;28;20100;-92
2023/09/04 04:56:34;;;;;;;1.05;0.88;;;;;;;18.44;89.14;99513.69;4969864;28;20058;-91
2023/09/04 04:58:59;;;;;;;0.35;0.35;;;;;;;18.26;90.19;99552.88;4973113;28;20042;-90
2023/09/04 05:01:24;;;;;;;1.58;0.98;;;;;;;18.27;91.26;99567.06;4972384;28;20548;-88
2023/09/04 05:03:50;;;;;;;2.05;1.23;;;;;;;18.45;91.89;99589.34;4991008;28;20046;-89
2023/09/04 05:06:16;;;;;;;1.67;1.48;;;;;;;18.10;91.76;99559.88;4971821;28;20041;-89
2023/09/04 05:08:41;;;;;;;0.60;0.43;;;;;;;17.89;92.79;99546.63;4981023;28;20122;-92
2023/09/04 05:11:08;;;;;;;1.15;0.60;;;;;;;17.81;93.54;99538.97;4965099;28;20038;-93
2023/09/04 05:13:35;;;;;;;2.08;1.15;;;;;;;17.82;93.85;99547.81;4951970;28;20035;-91
2023/09/04 05:16:03;;;;;;;1.02;0.80;;;;;;;17.91;93.62;99562.56;4968943;28;20039;-90
2023/09/04 05:18:30;;;;;;;1.00;0.95;;;;;;;18.29;94.15;99598.09;4970529;28;20034;-87
2023/09/04 05:20:55;;;;;;;0.98;0.95;;;;;;;18.34;94.24;99620.09;4969391;28;20130;-86
2023/09/04 05:23:21;;;;;;;0.50;0.50;;;;;;;18.11;95.53;99599.84;4944324;28;20134;-86
2023/09/04 05:25:51;;;;;;;0.47;0.40;;;;;;;18.14;96.33;99601.50;4950006;29;20461;-86
2023/09/04 05:28:17;;;;;;;1.25;0.60;;;;;;;17.76;97.61;99556.13;4934155;29;20031;-86
2023/09/04 05:30:42;;;;;;;1.05;0.63;;;;;;;18.03;96.12;99597.53;4963499;28;20424;-88
2023/09/04 05:33:08;;;;;;;1.33;1.00;;;;;;;18.02;98.12;99617.16;4963853;28;20100;-85
2023/09/04 05:35:33;;;;;;;2.65;1.50;;;;;;;17.78;98.28;99575.56;4970544;28;20039;-87
2023/09/04 05:37:59;;;;;;;0.57;0.50;;;;;;;17.80;98.33;99595.06;4963518;28;20117;-85
2023/09/04 05:40:25;;;;;;;1.52;1.25;;;;;;;18.21;97.77;99608.28;4961880;28;20482;-86
2023/09/04 05:42:51;;;;;;;0.65;0.57;;;;;;;18.26;97.04;99614.28;4948751;28;20049;-89
2023/09/04 05:45:16;;;;;;;1.55;1.35;;;;;;;18.50;95.92;99635.38;4958285;28;20410;-90
2023/09/04 05:47:42;;;;;;;1.25;0.82;;;;;;;18.39;97.09;99644.78;4967301;28;20497;-88
2023/09/04 05:50:09;;;;;;;3.78;1.30;;;;;;;18.46;95.79;99644.47;4938164;28;20125;-87
2023/09/04 05:52:36;;;;;;;1.25;1.15;;;;;;;18.39;95.92;99612.72;4952173;28;20031;-87
2023/09/04 05:55:01;;;;;;;0.88;0.70;;;;;;;18.76;95.41;99640.31;4967118;28;20046;-86
2023/09/04 05:57:27;;;;;;;0.40;0.40;;;;;;;18.54;93.49;99620.94;4962786;28;20042;-86
2023/09/04 05:59:52;;;;;;;1.70;1.15;;;;;;;18.72;94.36;99635.19;4974069;28;20026;-87
2023/09/04 06:02:18;;;;;;;4.25;2.05;;;;;;;18.71;93.27;99631.66;4970252;28;20121;-88
2023/09/04 06:04:43;;;;;;;0.63;0.60;;;;;;;18.77;91.39;99601.97;4972916;28;20527;-88
2023/09/04 06:07:10;;;;;;;1.13;0.75;;;;;;;19.13;90.84;99648.31;4973197;28;20114;-88
2023/09/04 06:09:39;;;;;;;1.13;1.02;;;;;;;19.28;90.02;99647.53;4970421;28;20081;-86
2023/09/04 06:12:05;;;;;;;1.55;1.38;;;;;;;19.08;89.69;99615.63;4963270;28;20046;-88
2023/09/04 06:14:30;;;;;;;1.67;1.15;;;;;;;19.49;88.29;99656.25;4972011;28;20034;-89
2023/09/04 06:16:56;;;;;;;1.27;1.10;;;;;;;19.62;87.06;99653.78;4955799;28;20403;-87
2023/09/04 06:19:22;;;;;;;1.80;0.70;;;;;;;19.43;87.02;99621.81;4960917;28;20489;-88
2023/09/04 06:21:47;;;;;;;1.85;1.40;;;;;;;19.49;87.92;99632.19;4937194;28;20027;-87
2023/09/04 06:24:13;;;;;;;0.85;0.70;;;;;;;19.69;86.14;99640.94;4937184;29;20070;-86
2023/09/04 06:26:38;;;;;;;1.77;1.27;;;;;;;19.39;86.41;99582.78;4967707;28;20030;-89
2023/09/04 06:29:04;;;;;;;1.10;0.98;;;;;;;20.17;84.65;99660.69;4966294;28;20480;-85
2023/09/04 06:31:30;;;;;;;0.55;0.47;;;;;;;20.33;83.36;99660.69;4955804;28;20035;-84
2023/09/04 06:33:56;;;;;;;1.98;1.80;;;;;;;20.28;82.70;99644.00;4955287;28;20043;-87
2023/09/04 06:36:22;;;;;;;4.95;1.02;;;;;;;20.16;83.16;99637.50;4959641;28;20049;-88
2023/09/04 06:38:48;;;;;;;0.65;0.65;;;;;;;20.30;83.05;99655.50;4963989;28;20519;-88
2023/09/04 06:41:13;;;;;;;1.58;1.30;;;;;;;19.83;83.34;99627.72;4968848;28;20030;-86
2023/09/04 06:43:39;;;;;;;0.85;0.68;;;;;;;20.31;83.77;99664.38;4956878;28;20101;-85
2023/09/04 06:46:04;;;;;;;0.73;0.73;;;;;;;20.35;84.06;99657.91;4954616;28;20023;-85
2023/09/04 06:48:30;;;;;;;1.33;1.05;;;;;;;20.33;85.63;99663.34;4954697;28;20031;-85
2023/09/04 06:50:55;;;;;;;1.35;1.23;;;;;;;20.28;86.44;99675.25;4954760;28;20053;-84
2023/09/04 06:53:21;;;;;;;1.75;1.30;;;;;;;20.03;86.48;99642.69;4954435;28;20039;-85
2023/09/04 06:55:49;;;;;;;1.23;1.13;;;;;;;20.33;86.19;99654.47;4954365;28;20031;-86
2023/09/04 06:58:15;;;;;;;0.77;0.73;;;;;;;20.43;85.72;99654.81;4964776;28;20027;-87
2023/09/04 07:00:40;;;;;;;2.30;1.48;;;;;;;20.42;85.12;99653.06;4971122;28;20090;-86
2023/09/04 07:03:07;;;;;;;1.65;1.33;;;;;;;20.60;84.34;99661.88;4953936;28;20019;-86
2023/09/04 07:05:33;;;;;;;1.60;1.08;;;;;;;20.38;84.14;99644.34;4966955;28;20038;-85
2023/09/04 07:07:58;;;;;;;2.20;1.17;;;;;;;20.60;83.17;99648.50;4954257;28;20027;-84
2023/09/04 07:10:24;;;;;;;2.75;1.92;;;;;;;20.49;82.54;99638.38;4953774;28;20098;-87
2023/09/04 07:12:52;;;;;;;2.08;0.98;;;;;;;20.66;82.22;99677.66;4953219;28;20031;-89
2023/09/04 07:15:18;;;;;;;3.13;1.90;;;;;;;20.83;81.66;99668.63;4967284;28;20086;-89
2023/09/04 07:17:43;;;;;;;1.67;1.30;;;;;;;20.70;81.15;99657.78;4954130;28;20031;-88
2023/09/04 07:20:10;;;;;;;1.65;1.02;;;;;;;20.78;80.44;99686.81;4952218;28;20037;-91
2023/09/04 07:22:36;;;;;;;1.02;0.75;;;;;;;20.90;80.16;99694.16;4938272;28;20054;-84
2023/09/04 07:25:04;;;;;;;2.17;1.80;;;;;;;20.67;80.72;99684.75;4972836;28;20030;-87
2023/09/04 07:27:29;;;;;;;1.20;1.08;;;;;;;20.90;81.04;99688.78;4972962;28;20023;-84
2023/09/04 07:29:55;;;;;;;1.05;0.93;;;;;;;20.99;80.39;99692.72;4971103;28;20554;-86
2023/09/04 07:32:21;;;;;;;2.00;1.48;;;;;;;21.05;80.36;99689.69;4972669;28;20062;-84
2023/09/04 07:34:47;;;;;;;4.10;1.20;;;;;;;21.18;79.86;99679.97;4988150;28;20043;-84
2023/09/04 07:37:12;;;;;;;1.70;1.50;;;;;;;21.48;79.65;99713.97;4990082;28;20128;-83
2023/09/04 07:39:39;;;;;;;1.73;0.95;;;;;;;21.42;79.16;99676.78;4991924;28;20030;-82
2023/09/04 07:42:05;;;;;;;1.25;0.77;;;;;;;21.47;79.21;99688.09;4992070;28;20038;-83
2023/09/04 07:44:31;;;;;;;1.20;0.80;;;;;;;21.77;78.27;99706.88;4991421;28;20101;-83
2023/09/04 07:46:57;;;;;;;2.58;1.10;;;;;;;21.70;77.95;99678.66;4991773;28;20028;-84
2023/09/04 07:49:23;;;;;;;4.57;1.30;;;;;;;21.90;78.21;99703.44;4992098;28;20027;-85
2023/09/04 07:51:48;;;;;;;2.50;1.58;;;;;;;21.72;78.73;99678.56;4990961;28;20071;-82
2023/09/04 07:54:14;;;;;;;3.63;1.90;;;;;;;21.72;79.31;99692.88;4991309;28;20507;-83
2023/09/04 07:56:39;;;;;;;1.50;1.30;;;;;;;21.64;79.89;99690.66;4991246;28;20084;-83
2023/09/04 07:59:05;;;;;;;0.70;0.70;;;;;;;21.70;79.85;99691.22;4989287;28;20030;-83
2023/09/04 08:01:32;;;;;;;2.67;1.27;;;;;;;21.76;79.25;99693.53;4970530;28;20085;-84
2023/09/04 08:03:58;;;;;;;2.13;1.80;;;;;;;21.91;78.68;99699.78;4954612;28;20523;-84
2023/09/04 08:06:23;;;;;;;2.78;1.63;;;;;;;21.91;77.62;99673.78;4971920;28;20110;-85
2023/09/04 08:08:50;;;;;;;2.42;1.55;;;;;;;21.73;78.05;99672.25;4971249;28;20434;-85
2023/09/04 08:11:16;;;;;;;4.57;2.47;;;;;;;21.83;76.52;99692.22;4971475;28;20560;-86
2023/09/04 08:13:41;;;;;;;1.00;0.90;;;;;;;21.82;77.05;99693.16;4971198;28;20050;-87
2023/09/04 08:16:07;;;;;;;3.72;1.80;;;;;;;21.87;78.46;99712.53;4971790;28;20726;-86
2023/09/04 08:18:32;;;;;;;1.98;0.95;;;;;;;21.79;77.67;99685.28;4953594;28;20066;-85
2023/09/04 08:20:59;;;;;;;2.95;1.42;;;;;;;21.94;77.80;99713.03;4971028;28;20035;-86
2023/09/04 08:23:24;;;;;;;3.28;2.33;;;;;;;22.13;76.86;99712.72;4971089;28;20051;-85
2023/09/04 08:25:58;;;;;;;2.28;1.10;;;;;;;22.09;76.81;99692.38;4971687;28;20038;-86
2023/09/04 08:28:25;;;;;;;1.85;1.25;;;;;;;22.03;77.09;99676.66;4970480;28;20054;-85
2023/09/04 08:30:50;;;;;;;1.42;1.27;;;;;;;22.18;77.24;99697.19;4970849;28;20031;-86
2023/09/04 08:33:16;;;;;;;2.33;1.58;;;;;;;22.25;77.18;99705.75;4970802;28;20042;-86
2023/09/04 08:35:41;;;;;;;3.05;1.27;;;;;;;21.80;76.56;99652.13;4954061;28;20038;-88
2023/09/04 08:38:07;;;;;;;2.45;1.52;;;;;;;22.14;77.14;99712.63;4969630;28;20125;-87
2023/09/04 08:40:36;;;;;;;2.90;1.95;;;;;;;22.22;77.62;99704.09;4970257;28;20481;-87
2023/09/04 08:43:03;;;;;;;3.33;1.95;;;;;;;22.08;77.18;99702.28;4970957;28;20022;-89
2023/09/04 08:45:32;;;;;;;3.05;1.60;;;;;;;21.99;77.63;99721.66;4952076;28;20039;-89
2023/09/04 08:47:59;;;;;;;2.08;1.75;;;;;;;21.86;77.46;99685.78;4953350;28;20182;-88
2023/09/04 08:50:27;;;;;;;1.92;1.30;;;;;;;21.87;77.20;99701.78;4970764;28;20556;-91
2023/09/04 08:52:53;;;;;;;1.73;1.48;;;;;;;21.63;76.52;99662.09;4952309;28;20030;-90
2023/09/04 08:55:20;;;;;;;3.63;3.28;;;;;;;21.73;76.43;99669.56;4952928;28;20045;-90
2023/09/04 08:57:45;;;;;;;2.80;1.52;;;;;;;22.00;77.13;99712.66;4972466;28;20117;-90
2023/09/04 09:00:11;;;;;;;7.00;3.30;;;;;;;22.03;76.74;99695.47;4953086;28;20509;-90
2023/09/04 09:02:39;;;;;;;2.58;1.13;;;;;;;22.29;76.55;99720.69;4969428;28;20862;-91
2023/09/04 09:05:07;;;;;;;1.52;1.42;;;;;;;22.07;75.09;99703.22;4952609;28;20129;-90
2023/09/04 09:07:36;;;;;;;1.88;1.73;;;;;;;22.06;75.68;99698.84;4952506;28;20065;-91
2023/09/04 09:10:04;;;;;;;1.58;1.30;;;;;;;22.19;76.15;99733.84;4937124;28;20113;-90
2023/09/04 09:12:30;;;;;;;2.97;1.50;;;;;;;21.84;77.24;99696.59;4969899;28;20121;-86
2023/09/04 09:14:58;;;;;;;4.20;1.50;;;;;;;21.90;77.21;99696.22;4970086;28;20114;-87
2023/09/04 09:17:24;;;;;;;2.13;1.90;;;;;;;21.76;77.80;99688.16;4970249;28;20045;-87
2023/09/04 09:19:49;;;;;;;3.75;1.95;;;;;;;21.84;78.81;99703.81;4969953;28;20026;-90
2023/09/04 09:22:17;;;;;;;1.70;1.10;;;;;;;21.67;78.90;99691.41;4969323;28;20031;-91
2023/09/04 09:25:00;;;;;;;1.55;1.00;;;;;;;21.55;79.21;99682.28;4953085;28;20038;-95
2023/09/04 09:27:32;;;;;;;1.35;0.88;;;;;;;21.70;79.00;99712.69;4953097;28;20121;-90
2023/09/04 09:30:01;;;;;;;2.00;1.23;;;;;;;21.11;78.71;99676.78;4969232;28;20125;-89
2023/09/04 09:32:32;;;;;;;2.20;1.40;;;;;;;21.22;77.99;99702.97;4971463;28;20121;-90
2023/09/04 09:35:01;;;;;;;1.52;1.00;;;;;;;21.11;79.22;99692.88;4983948;28;20121;-96
2023/09/04 09:37:31;;;;;;;0.93;0.50;;;;;;;21.36;79.44;99710.19;4968685;28;20153;-92
2023/09/04 09:39:57;;;;;;;1.30;0.82;;;;;;;21.35;79.42;99686.13;4976480;28;20457;-90
2023/09/04 09:42:25;;;;;;;0.55;0.50;;;;;;;21.40;79.11;99698.31;4976284;28;20136;-93
2023/09/04 09:44:51;;;;;;;0.95;0.95;;;;;;;21.39;80.36;99720.75;4973893;28;20049;-93
2023/09/04 09:47:17;;;;;;;2.17;0.93;;;;;;;21.22;81.50;99710.16;4989347;28;20117;-90
2023/09/04 09:49:43;;;;;;;1.33;1.10;;;;;;;21.06;81.22;99678.88;4993476;28;20125;-92
2023/09/04 09:52:11;;;;;;;1.65;1.17;;;;;;;20.97;82.48;99695.50;4974304;28;20038;-94
2023/09/04 09:54:41;;;;;;;1.08;0.98;;;;;;;20.98;82.41;99715.16;4977692;28;20034;-94
2023/09/04 09:57:11;;;;;;;2.38;1.45;;;;;;;20.70;82.45;99714.06;4974278;28;20034;-88
2023/09/04 09:59:41;;;;;;;2.30;0.90;;;;;;;20.52;83.48;99714.09;4956541;28;20450;-93
2023/09/04 10:02:07;;;;;;;3.30;1.45;;;;;;;20.58;81.96;99705.69;4988500;28;20453;-90
2023/09/04 10:04:34;;;;;;;1.73;1.33;;;;;;;20.59;81.32;99695.88;4980265;28;20169;-93
2023/09/04 10:07:01;;;;;;;2.45;1.13;;;;;;;20.03;82.88;99685.53;4973009;28;20540;-93
2023/09/04 10:09:28;;;;;;;1.70;1.20;;;;;;;20.12;84.07;99691.31;4955614;28;20061;-87
2023/09/04 10:12:05;;;;;;;1.00;0.90;;;;;;;19.79;85.57;99649.38;4973826;28;20034;-90
2023/09/04 10:14:39;;;;;;;1.67;0.95;;;;;;;19.79;86.61;99662.75;4975751;28;20047;-93
2023/09/04 10:17:24;;;;;;;0.70;0.63;;;;;;;19.94;88.10;99710.13;4975600;28;20027;-94
2023/09/04 10:19:53;;;;;;;1.67;1.20;;;;;;;20.11;87.49;99721.72;4959166;28;20122;-94
2023/09/04 10:22:25;;;;;;;1.83;0.90;;;;;;;19.92;86.53;99671.00;4973070;28;20111;-92
2023/09/04 10:25:09;;;;;;;1.45;1.08;;;;;;;19.62;85.36;99699.25;4972995;28;20069;-94
2023/09/04 10:27:41;;;;;;;2.33;1.73;;;;;;;19.29;86.50;99680.47;4939669;28;20041;-89
2023/09/04 10:30:09;;;;;;;1.05;0.95;;;;;;;19.08;88.03;99653.03;4955526;28;20035;-90
2023/09/04 10:32:35;;;;;;;1.15;1.02;;;;;;;18.93;90.10;99676.91;4972538;28;20496;-89
2023/09/04 10:35:05;;;;;;;1.98;1.45;;;;;;;18.98;90.42;99681.16;4972782;28;20042;-90
2023/09/04 10:37:31;;;;;;;1.60;1.30;;;;;;;18.88;90.66;99692.31;4955268;28;20022;-87
2023/09/04 10:39:58;;;;;;;1.52;1.08;;;;;;;18.68;92.39;99661.19;4972384;28;20087;-90
2023/09/04 10:42:27;;;;;;;2.35;1.48;;;;;;;18.75;92.47;99643.94;4971559;28;20066;-90
2023/09/04 10:44:53;;;;;;;1.90;1.35;;;;;;;18.70;93.98;99643.28;4954552;28;20054;-87
2023/09/04 10:47:20;;;;;;;1.45;1.10;;;;;;;18.89;96.68;99706.53;4971468;28;20046;-86
2023/09/04 10:49:47;;;;;;;2.78;1.70;;;;;;;18.54;94.70;99690.41;4972833;28;20038;-90
2023/09/04 10:52:13;;;;;;;1.92;1.35;;;;;;;18.42;96.92;99663.31;4955830;28;20117;-87
2023/09/04 10:54:40;;;;;;;1.50;1.02;;;;;;;18.68;94.95;99711.97;4973117;28;20035;-91
2023/09/04 10:57:10;;;;;;;1.42;0.95;;;;;;;18.21;94.44;99667.00;4956267;28;20113;-89
2023/09/04 10:59:54;;;;;;;0.70;0.70;;;;;;;18.37;93.16;99717.91;4971677;28;20117;-89
2023/09/04 11:02:33;;;;;;;1.73;1.35;;;;;;;18.16;94.33;99695.72;4952645;28;20039;-90
2023/09/04 11:05:00;;;;;;;2.25;1.38;;;;;;;18.27;95.19;99719.25;4955161;28;20517;-91
2023/09/04 11:07:36;;;;;;;1.55;1.23;;;;;;;17.99;94.61;99677.81;4955013;28;20106;-92
2023/09/04 11:10:06;;;;;;;1.88;1.58;;;;;;;18.01;95.35;99681.28;4968392;28;20464;-88
2023/09/04 11:12:35;;;;;;;2.80;1.38;;;;;;;18.15;96.02;99705.56;4982145;28;20042;-90
2023/09/04 11:15:01;;;;;;;1.85;1.35;;;;;;;17.92;96.63;99689.69;4971009;28;20027;-91
2023/09/04 11:17:31;;;;;;;4.22;1.70;;;;;;;18.06;96.89;99717.50;4971607;28;20520;-89
2023/09/04 11:19:58;;;;;;;1.75;1.10;;;;;;;18.30;95.67;99717.31;4954977;28;20041;-91
2023/09/04 11:22:25;;;;;;;1.45;1.10;;;;;;;18.22;94.11;99692.78;4972579;28;20252;-94
2023/09/04 11:24:53;;;;;;;1.08;0.63;;;;;;;18.08;95.38;99723.63;4955086;28;20122;-89
2023/09/04 11:27:22;;;;;;;1.52;1.30;;;;;;;18.17;95.45;99671.63;4972722;28;20038;-89
2023/09/04 11:29:48;;;;;;;1.42;1.25;;;;;;;18.37;94.48;99684.03;4971691;28;20058;-92
2023/09/04 11:32:19;;;;;;;2.33;1.75;;;;;;;18.31;94.47;99695.00;4970499;28;20035;-87